Terminal Aerodrome Forecast
Issued by NWS

Current Version | Previous Version | Text Only | Print | Product List | Glossary On
Versions: 1 2 3 4 5 6 7 8 9 10 11 12 13 14 15 16 17 18 19 20 21 22 23 24 25 26 27
000
FTUS41 KBOX 221733
TAFFMH
TAF
KFMH 221733Z 2218/2318 24018G32KT P6SM SCT130
     FM222300 24016G29KT P6SM BKN090
     FM231100 24011G24KT P6SM BKN060
     FM231600 24012KT P6SM SCT050=

USA.gov is the U.S. government's official web portal to all federal, state and local government web resources and services.